Atar, Mauritania
Current Conditions -  °F | °C
As of 9:00 PM on Friday 24 Oct 2014 (Local Time) from GQPA Reporting Station
Clear Clear  
Wind Chill: 88°   Ceiling: Unl
Heat Index: 88°   Visibility: 5mi
Dew Point: 41°   Wind: 5mph
Humidity: 19%   Direction: 40°NE
Pressure: 29.97"   Gusts: NA
Location:  20.51°N, 13.05°W
Report Text: GQPA 242100Z 04004KT 8000 NSC 31/05 Q1015
Loading
Personal Weather Stations






























Interactive Weather Map
Tropical Storm Tracking
New forecast layout! Learn more

10-Day Weather Forecast

Advertisements
Track Severe Weather on mobile